createdAt,value
2018-05-09T00:02:00.997Z,3.80
2018-05-09T00:04:42.685Z,4.70
2018-05-09T00:07:26.264Z,3.33
2018-05-09T00:10:09.087Z,2.85
2018-05-09T00:12:38.294Z,4.20
2018-05-09T00:15:06.672Z,4.57
2018-05-09T00:17:35.105Z,4.00
2018-05-09T00:20:03.509Z,3.60
2018-05-09T00:22:31.949Z,3.53
2018-05-09T00:25:01.297Z,4.32
2018-05-09T00:27:29.673Z,3.80
2018-05-09T00:29:58.051Z,3.97
2018-05-09T00:32:26.446Z,4.37
2018-05-09T00:34:54.820Z,4.35
2018-05-09T00:37:23.385Z,3.15
2018-05-09T00:39:51.781Z,3.67
2018-05-09T00:42:20.156Z,3.92
2018-05-09T00:44:48.550Z,3.62
2018-05-09T00:47:16.922Z,3.70
2018-05-09T00:49:45.485Z,3.60
2018-05-09T00:52:13.853Z,4.07
2018-05-09T00:54:42.228Z,4.43
2018-05-09T00:57:10.628Z,3.55
2018-05-09T00:59:39.008Z,4.20
2018-05-09T01:02:07.537Z,3.53
2018-05-09T01:04:36.677Z,4.22
2018-05-09T01:07:05.049Z,3.35
2018-05-09T01:09:33.437Z,3.62
2018-05-09T01:12:01.926Z,3.97
2018-05-09T01:14:38.328Z,3.70
2018-05-09T01:17:07.991Z,4.18
2018-05-09T01:19:36.689Z,3.95
2018-05-09T01:22:11.964Z,4.28
2018-05-09T01:24:47.272Z,4.18
2018-05-09T01:27:21.769Z,3.95
2018-05-09T01:29:54.086Z,4.93
2018-05-09T01:32:30.613Z,3.55
2018-05-09T01:35:09.444Z,3.15
2018-05-09T01:37:42.865Z,4.40
2018-05-09T01:40:22.700Z,4.97
2018-05-09T01:42:52.917Z,4.60
2018-05-09T01:45:22.167Z,4.70
2018-05-09T01:47:51.310Z,4.65
2018-05-09T01:50:19.674Z,4.50
2018-05-09T01:52:48.069Z,3.80
2018-05-09T01:55:16.437Z,4.68
2018-05-09T01:57:45.245Z,5.72
2018-05-09T02:00:13.616Z,4.80
2018-05-09T02:02:42.142Z,4.32
2018-05-09T02:05:11.301Z,5.15
2018-05-09T02:07:39.672Z,5.50
2018-05-09T02:10:08.238Z,4.87
2018-05-09T02:12:37.185Z,5.18
2018-05-09T02:15:05.667Z,6.35
2018-05-09T02:17:34.895Z,4.82
2018-05-09T02:20:04.119Z,5.72
2018-05-09T02:22:32.794Z,5.12
2018-05-09T02:25:01.167Z,5.53
2018-05-09T02:27:29.540Z,5.82
2018-05-09T02:29:57.938Z,5.68
2018-05-09T02:32:26.320Z,5.40
2018-05-09T02:34:54.890Z,6.40
2018-05-09T02:37:23.281Z,5.68
2018-05-09T02:39:51.660Z,5.57
2018-05-09T02:42:20.062Z,5.95
2018-05-09T02:44:48.432Z,4.43
2018-05-09T02:47:16.862Z,5.18
2018-05-09T02:49:45.230Z,5.05
2018-05-09T02:52:14.366Z,5.93
2018-05-09T02:54:42.765Z,5.00
2018-05-09T02:57:11.140Z,5.70
2018-05-09T02:59:39.799Z,5.95
2018-05-09T03:02:08.181Z,5.68
2018-05-09T03:04:37.901Z,5.85
2018-05-09T03:07:06.293Z,6.30
2018-05-09T03:09:34.818Z,5.97
2018-05-09T03:12:06.079Z,5.87
2018-05-09T03:14:35.481Z,6.18
2018-05-09T03:17:04.309Z,4.93
2018-05-09T03:19:33.252Z,6.57
2018-05-09T03:22:02.617Z,6.15
2018-05-09T03:24:31.865Z,7.20
2018-05-09T03:27:01.704Z,6.15
2018-05-09T03:29:31.956Z,6.03
2018-05-09T03:32:03.634Z,6.70
2018-05-09T03:34:34.070Z,5.87
2018-05-09T03:37:03.333Z,5.78
2018-05-09T03:39:33.023Z,5.72
2018-05-09T03:42:02.752Z,5.70
2018-05-09T03:44:31.120Z,6.10
2018-05-09T03:46:59.519Z,6.80
2018-05-09T03:49:27.892Z,5.82
2018-05-09T03:51:56.436Z,7.20
2018-05-09T03:54:24.808Z,6.53
2018-05-09T03:56:53.190Z,7.15
2018-05-09T03:59:21.594Z,6.82
2018-05-09T04:02:07.835Z,6.53
2018-05-09T04:04:54.147Z,7.70
2018-05-09T04:07:41.187Z,6.87
2018-05-09T04:10:09.584Z,7.47
2018-05-09T04:12:37.957Z,8.40
2018-05-09T04:15:06.373Z,7.37
2018-05-09T04:17:35.520Z,7.62
2018-05-09T04:20:03.906Z,8.07
2018-05-09T04:22:32.312Z,6.70
2018-05-09T04:25:00.719Z,7.75
2018-05-09T04:27:29.323Z,8.10
2018-05-09T04:29:57.703Z,7.43
2018-05-09T04:32:26.082Z,8.35
2018-05-09T04:34:54.477Z,7.28
2018-05-09T04:37:22.844Z,7.80
2018-05-09T04:39:51.257Z,7.10
2018-05-09T04:42:19.649Z,7.87
2018-05-09T04:44:48.017Z,8.05
2018-05-09T04:47:16.418Z,8.02
2018-05-09T04:49:45.559Z,9.07
2018-05-09T04:52:14.138Z,8.30
2018-05-09T04:54:42.521Z,8.20
2018-05-09T04:57:10.884Z,7.15
2018-05-09T04:59:39.285Z,7.18
2018-05-09T05:02:07.720Z,7.40
2018-05-09T05:04:37.059Z,8.18
2018-05-09T05:07:05.437Z,8.13
2018-05-09T05:09:33.828Z,8.25
2018-05-09T05:12:02.216Z,7.70
2018-05-09T05:14:30.589Z,8.77
2018-05-09T05:16:59.153Z,8.27
2018-05-09T05:19:27.532Z,7.05
2018-05-09T05:21:55.949Z,7.80
2018-05-09T05:24:24.419Z,7.00
2018-05-09T05:26:52.733Z,8.23
2018-05-09T05:29:21.561Z,9.30
2018-05-09T05:31:49.933Z,8.73
2018-05-09T05:34:18.304Z,9.82
2018-05-09T05:36:46.704Z,8.55
2018-05-09T05:39:15.081Z,10.70
2018-05-09T05:41:43.650Z,10.02
2018-05-09T05:44:12.026Z,11.55
2018-05-09T05:46:40.411Z,11.50
2018-05-09T05:49:08.829Z,11.25
2018-05-09T05:51:37.205Z,10.85
2018-05-09T05:54:05.813Z,9.88
2018-05-09T05:56:34.960Z,10.10
2018-05-09T05:59:03.431Z,11.80
2018-05-09T06:01:31.836Z,13.02
2018-05-09T06:04:00.221Z,11.98
2018-05-09T06:06:29.072Z,10.50
2018-05-09T06:08:57.452Z,10.60
2018-05-09T06:11:25.845Z,10.05
2018-05-09T06:13:54.248Z,9.20
2018-05-09T06:16:22.622Z,9.25
2018-05-09T06:18:51.036Z,9.35
2018-05-09T06:21:19.420Z,9.10
2018-05-09T06:23:47.853Z,8.07
2018-05-09T06:26:16.221Z,8.70
2018-05-09T06:28:44.603Z,8.77
2018-05-09T06:31:13.029Z,9.13
2018-05-09T06:33:41.407Z,8.95
2018-05-09T06:36:09.790Z,9.93
2018-05-09T06:38:38.193Z,9.00
2018-05-09T06:41:06.579Z,8.90
2018-05-09T06:43:35.263Z,10.13
2018-05-09T06:46:03.645Z,8.57
2018-05-09T06:48:32.021Z,7.80
2018-05-09T06:51:00.424Z,8.60
2018-05-09T06:53:28.807Z,6.30
2018-05-09T06:55:57.228Z,7.78
2018-05-09T06:58:25.617Z,6.87
2018-05-09T07:00:54.033Z,7.37
2018-05-09T07:03:22.602Z,7.03
2018-05-09T07:05:50.987Z,7.65
2018-05-09T07:08:19.857Z,7.03
2018-05-09T07:10:48.244Z,6.72
2018-05-09T07:13:16.634Z,8.60
2018-05-09T07:15:45.048Z,7.13
2018-05-09T07:18:14.242Z,7.00
2018-05-09T07:20:42.593Z,8.50
2018-05-09T07:23:11.057Z,7.27
2018-05-09T07:25:39.429Z,7.07
2018-05-09T07:28:07.805Z,8.93
2018-05-09T07:30:36.213Z,7.57
2018-05-09T07:33:04.600Z,7.30
2018-05-09T07:35:33.212Z,6.70
2018-05-09T07:38:01.543Z,6.97
2018-05-09T07:40:29.921Z,6.80
2018-05-09T07:42:58.320Z,6.13
2018-05-09T07:45:26.693Z,7.70
2018-05-09T07:47:55.146Z,7.47
2018-05-09T07:50:23.504Z,7.30
2018-05-09T07:52:51.874Z,8.00
2018-05-09T07:55:20.268Z,6.37
2018-05-09T07:57:48.637Z,6.47
2018-05-09T08:00:17.145Z,7.17
2018-05-09T08:02:45.528Z,8.73
2018-05-09T08:05:13.910Z,7.60
2018-05-09T08:07:42.321Z,7.33
2018-05-09T08:10:11.524Z,5.57
2018-05-09T08:12:40.844Z,5.70
2018-05-09T08:15:09.240Z,5.97
2018-05-09T08:17:37.613Z,6.03
2018-05-09T08:20:06.013Z,5.87
2018-05-09T08:22:34.386Z,5.50
2018-05-09T08:25:02.817Z,5.63
2018-05-09T08:27:31.948Z,5.40
2018-05-09T08:30:00.313Z,6.10
2018-05-09T08:32:28.704Z,5.97
2018-05-09T08:34:57.070Z,6.00
2018-05-09T08:37:25.672Z,6.20
2018-05-09T08:39:54.049Z,5.60
2018-05-09T08:42:22.605Z,5.20
2018-05-09T08:44:51.764Z,4.67
2018-05-09T08:47:20.129Z,5.87
2018-05-09T08:49:49.003Z,5.13
2018-05-09T08:52:17.371Z,5.03
2018-05-09T08:54:45.741Z,5.70
2018-05-09T08:57:14.134Z,4.50
2018-05-09T08:59:42.501Z,5.13
2018-05-09T09:02:10.933Z,5.30
2018-05-09T09:04:39.381Z,5.07
2018-05-09T09:07:07.757Z,4.97
2018-05-09T09:09:36.156Z,5.00
2018-05-09T09:12:15.898Z,4.63
2018-05-09T09:14:59.964Z,4.57
2018-05-09T09:17:45.655Z,4.03
2018-05-09T09:20:29.263Z,4.40
2018-05-09T09:23:14.018Z,4.60
2018-05-09T09:25:58.279Z,4.17
2018-05-09T09:28:43.505Z,4.50
2018-05-09T09:31:26.611Z,5.13
2018-05-09T09:34:06.539Z,3.83
2018-05-09T09:36:51.567Z,4.10
2018-05-09T09:39:35.777Z,3.60
2018-05-09T09:42:21.678Z,4.43
2018-05-09T09:45:04.615Z,4.30
2018-05-09T09:47:45.659Z,3.93
2018-05-09T09:50:28.845Z,3.33
2018-05-09T09:53:12.130Z,3.17
2018-05-09T09:55:56.798Z,3.77
2018-05-09T09:58:40.644Z,4.03
2018-05-09T10:01:24.773Z,3.80
2018-05-09T10:04:09.990Z,3.83
2018-05-09T10:06:55.052Z,3.80
2018-05-09T10:09:38.056Z,3.40
2018-05-09T10:12:17.538Z,4.37
2018-05-09T10:15:01.301Z,3.23
2018-05-09T10:17:42.053Z,3.47
2018-05-09T10:20:23.829Z,3.07
2018-05-09T10:23:07.313Z,3.00
2018-05-09T10:25:49.710Z,3.93
2018-05-09T10:28:31.820Z,2.90
2018-05-09T10:31:16.255Z,3.93
2018-05-09T10:33:57.863Z,4.53
2018-05-09T10:36:44.737Z,3.43
2018-05-09T10:39:24.831Z,3.07
2018-05-09T10:41:55.325Z,2.73
2018-05-09T10:44:24.076Z,3.80
2018-05-09T10:46:53.480Z,3.77
2018-05-09T10:49:24.110Z,3.50
2018-05-09T10:51:56.984Z,2.80
2018-05-09T10:54:25.774Z,3.57
2018-05-09T10:56:54.467Z,2.80
2018-05-09T10:59:38.310Z,2.40
2018-05-09T11:02:21.372Z,3.67
2018-05-09T11:05:04.652Z,2.53
2018-05-09T11:07:50.111Z,3.07
2018-05-09T11:10:34.291Z,3.73
2018-05-09T11:13:13.558Z,4.23
2018-05-09T11:15:53.642Z,3.50
2018-05-09T11:18:38.305Z,3.00
2018-05-09T11:21:22.092Z,3.60
2018-05-09T11:24:04.868Z,2.60
2018-05-09T11:26:33.968Z,3.00
2018-05-09T11:29:02.368Z,1.90
2018-05-09T11:31:30.737Z,2.03
2018-05-09T11:33:59.130Z,2.10
2018-05-09T11:36:27.513Z,2.60
2018-05-09T11:38:56.277Z,2.17
2018-05-09T11:41:25.792Z,1.63
2018-05-09T11:43:54.172Z,3.30
2018-05-09T11:46:22.568Z,2.20
2018-05-09T11:48:52.446Z,2.00
2018-05-09T11:51:32.646Z,1.90
2018-05-09T11:54:12.789Z,1.87
2018-05-09T11:56:54.606Z,2.13
2018-05-09T11:59:37.190Z,2.40
2018-05-09T12:02:24.240Z,2.13
2018-05-09T12:05:03.804Z,2.07
2018-05-09T12:07:42.842Z,2.33
2018-05-09T12:10:25.886Z,2.33
2018-05-09T12:13:08.121Z,2.67
2018-05-09T12:15:53.249Z,2.50
2018-05-09T12:18:36.884Z,2.80
2018-05-09T12:21:18.789Z,2.60
2018-05-09T12:24:00.776Z,2.20
2018-05-09T12:26:44.047Z,2.40
2018-05-09T12:29:27.554Z,2.57
2018-05-09T12:32:06.777Z,2.40
2018-05-09T12:34:46.269Z,1.90
2018-05-09T12:37:21.368Z,2.50
2018-05-09T12:40:03.581Z,2.37
2018-05-09T12:42:44.023Z,1.77
2018-05-09T12:45:27.168Z,1.70
2018-05-09T12:48:08.797Z,2.70
2018-05-09T12:50:55.786Z,2.03
2018-05-09T12:53:37.975Z,2.40
2018-05-09T12:56:24.195Z,2.17
2018-05-09T12:59:03.460Z,2.00
2018-05-09T13:01:45.896Z,3.00
2018-05-09T13:04:14.896Z,1.93
2018-05-09T13:06:43.446Z,1.63
2018-05-09T13:09:11.817Z,2.50
2018-05-09T13:11:40.209Z,2.87
2018-05-09T13:14:08.736Z,2.87
2018-05-09T13:16:41.544Z,1.63
2018-05-09T13:19:23.308Z,1.63
2018-05-09T13:21:55.110Z,1.73
2018-05-09T13:24:40.725Z,2.00
2018-05-09T13:27:24.201Z,1.47
2018-05-09T13:30:07.476Z,1.77
2018-05-09T13:32:36.277Z,2.70
2018-05-09T13:35:14.871Z,1.87
2018-05-09T13:37:43.850Z,1.70
2018-05-09T13:40:14.349Z,1.83
2018-05-09T13:42:45.834Z,1.90
2018-05-09T13:45:16.803Z,1.70
2018-05-09T13:47:47.680Z,2.07
2018-05-09T13:50:18.809Z,2.10
2018-05-09T13:52:51.350Z,2.27
2018-05-09T13:55:34.338Z,2.10
2018-05-09T13:58:17.410Z,2.17
2018-05-09T14:00:48.209Z,2.87
2018-05-09T14:03:26.884Z,2.67
2018-05-09T14:06:07.083Z,2.30
2018-05-09T14:08:48.795Z,3.00
2018-05-09T14:11:20.685Z,1.93
2018-05-09T14:13:55.032Z,2.40
2018-05-09T14:16:28.076Z,2.63
2018-05-09T14:19:01.623Z,3.00
2018-05-09T14:21:31.376Z,2.50
2018-05-09T14:23:59.788Z,3.23
2018-05-09T14:26:38.934Z,2.90
2018-05-09T14:29:08.681Z,5.97
2018-05-09T14:31:37.253Z,3.23
2018-05-09T14:34:16.382Z,3.40
2018-05-09T14:36:56.279Z,3.93
2018-05-09T14:39:38.350Z,4.00
2018-05-09T14:42:16.271Z,3.23
2018-05-09T14:44:55.278Z,3.70
2018-05-09T14:47:29.916Z,3.00
2018-05-09T14:50:08.190Z,5.10
2018-05-09T14:52:46.009Z,3.00
2018-05-09T14:55:23.530Z,2.57
2018-05-09T14:58:01.665Z,2.40
2018-05-09T15:00:48.178Z,3.17
2018-05-09T15:03:33.873Z,3.87
2018-05-09T15:06:20.394Z,2.53
2018-05-09T15:09:12.533Z,2.57
2018-05-09T15:11:53.253Z,2.83
2018-05-09T15:14:30.545Z,2.77
2018-05-09T15:17:16.232Z,2.77
2018-05-09T15:19:59.458Z,2.97
2018-05-09T15:22:47.331Z,3.63
2018-05-09T15:25:29.409Z,2.53
2018-05-09T15:28:15.753Z,2.50
2018-05-09T15:31:01.061Z,2.83
2018-05-09T15:33:46.045Z,2.63
2018-05-09T15:36:36.024Z,2.40
2018-05-09T15:39:17.505Z,2.63
2018-05-09T15:41:58.290Z,2.80
2018-05-09T15:44:34.805Z,3.47
2018-05-09T15:47:16.878Z,2.70
2018-05-09T15:49:58.338Z,4.07
2018-05-09T15:52:41.655Z,3.00
2018-05-09T15:55:23.171Z,3.00
2018-05-09T15:57:53.954Z,3.33
2018-05-09T16:00:41.965Z,3.30
2018-05-09T16:03:30.577Z,2.90
2018-05-09T16:06:15.086Z,2.80
2018-05-09T16:09:01.966Z,2.70
2018-05-09T16:11:43.786Z,2.67
2018-05-09T16:14:28.094Z,2.93
2018-05-09T16:17:05.559Z,2.80
2018-05-09T16:19:37.372Z,2.50
2018-05-09T16:22:09.960Z,2.43
2018-05-09T16:24:44.173Z,3.30
2018-05-09T16:27:16.804Z,2.40
2018-05-09T16:29:52.907Z,2.53
2018-05-09T16:32:22.481Z,2.90
2018-05-09T16:35:00.945Z,3.03
2018-05-09T16:37:30.115Z,2.80
2018-05-09T16:39:58.904Z,2.93
2018-05-09T16:42:31.535Z,2.60
2018-05-09T16:45:00.822Z,2.03
2018-05-09T16:47:30.491Z,2.00
2018-05-09T16:50:00.800Z,2.00
2018-05-09T16:52:31.752Z,1.73
2018-05-09T16:55:00.427Z,3.10
2018-05-09T16:57:29.330Z,2.50
2018-05-09T17:00:00.141Z,2.30
2018-05-09T17:02:29.742Z,2.30
2018-05-09T17:05:11.527Z,2.30
2018-05-09T17:07:41.316Z,2.10
2018-05-09T17:10:11.903Z,2.23
2018-05-09T17:12:41.487Z,2.20
2018-05-09T17:15:11.657Z,1.70
2018-05-09T17:17:44.750Z,4.13
2018-05-09T17:20:13.162Z,2.20
2018-05-09T17:22:48.639Z,2.33
2018-05-09T17:25:24.440Z,1.57
2018-05-09T17:27:54.304Z,3.63
2018-05-09T17:30:23.031Z,3.00
2018-05-09T17:32:53.802Z,2.40
2018-05-09T17:35:36.664Z,3.27
2018-05-09T17:38:20.715Z,2.40
2018-05-09T17:40:52.986Z,2.70
2018-05-09T17:43:26.056Z,2.77
2018-05-09T17:45:57.945Z,2.60
2018-05-09T17:48:28.698Z,2.40
2018-05-09T17:50:59.800Z,2.90
2018-05-09T17:53:30.569Z,3.50
2018-05-09T17:56:06.487Z,4.20
2018-05-09T17:58:46.108Z,4.33
2018-05-09T18:01:27.973Z,3.30
2018-05-09T18:04:05.869Z,3.50
2018-05-09T18:06:39.561Z,3.80
2018-05-09T18:09:09.227Z,2.80
2018-05-09T18:11:37.690Z,2.53
2018-05-09T18:14:06.093Z,3.20
2018-05-09T18:16:34.472Z,3.23
2018-05-09T18:19:02.943Z,3.50
2018-05-09T18:21:31.322Z,4.57
2018-05-09T18:24:00.007Z,3.47
2018-05-09T18:26:28.386Z,2.87
2018-05-09T18:28:56.772Z,2.90
2018-05-09T18:31:25.169Z,3.47
2018-05-09T18:33:53.545Z,3.73
2018-05-09T18:36:21.956Z,2.50
2018-05-09T18:38:51.100Z,3.10
2018-05-09T18:41:19.480Z,2.87
2018-05-09T18:43:47.893Z,3.13
2018-05-09T18:46:17.070Z,3.30
2018-05-09T18:48:45.932Z,3.77
2018-05-09T18:51:14.305Z,2.93
2018-05-09T18:53:42.761Z,3.70
2018-05-09T18:56:12.892Z,3.27
2018-05-09T18:58:41.266Z,3.43
2018-05-09T19:01:09.873Z,3.93
2018-05-09T19:03:38.248Z,3.27
2018-05-09T19:06:06.704Z,2.93
2018-05-09T19:08:35.110Z,4.00
2018-05-09T19:11:03.489Z,3.93
2018-05-09T19:13:31.993Z,3.40
2018-05-09T19:16:00.529Z,3.50
2018-05-09T19:18:29.123Z,3.13
2018-05-09T19:20:57.555Z,3.00
2018-05-09T19:23:26.002Z,4.03
2018-05-09T19:25:56.062Z,4.17
2018-05-09T19:28:25.577Z,3.10
2018-05-09T19:30:54.241Z,3.13
2018-05-09T19:33:23.098Z,3.53
2018-05-09T19:35:52.214Z,3.50
2018-05-09T19:38:20.984Z,3.10
2018-05-09T19:40:50.630Z,2.67
2018-05-09T19:43:19.735Z,2.60
2018-05-09T19:45:48.651Z,3.97
2018-05-09T19:48:17.078Z,3.50
2018-05-09T19:50:45.840Z,3.23
2018-05-09T19:53:14.794Z,3.40
2018-05-09T19:55:44.438Z,3.33
2018-05-09T19:58:13.436Z,3.40
2018-05-09T20:00:42.853Z,3.23
2018-05-09T20:03:13.068Z,4.27
2018-05-09T20:05:42.721Z,5.33
2018-05-09T20:08:11.680Z,8.83
2018-05-09T20:10:41.540Z,5.53
2018-05-09T20:13:11.156Z,4.00
2018-05-09T20:15:41.035Z,5.10
2018-05-09T20:18:11.414Z,3.55
2018-05-09T20:20:41.573Z,4.25
2018-05-09T20:23:10.584Z,3.90
2018-05-09T20:25:39.382Z,3.05
2018-05-09T20:28:08.589Z,4.57
2018-05-09T20:30:42.887Z,3.90
2018-05-09T20:33:12.650Z,3.67
2018-05-09T20:35:41.860Z,3.40
2018-05-09T20:38:11.903Z,3.97
2018-05-09T20:40:40.834Z,4.80
2018-05-09T20:43:09.639Z,4.50
2018-05-09T20:45:38.578Z,4.37
2018-05-09T20:48:07.337Z,3.97
2018-05-09T20:50:37.067Z,4.47
2018-05-09T20:53:05.523Z,4.35
2018-05-09T20:55:38.262Z,4.40
2018-05-09T20:58:07.022Z,5.32
2018-05-09T21:00:35.503Z,4.10
2018-05-09T21:03:04.392Z,4.57
2018-05-09T21:05:33.636Z,4.22
2018-05-09T21:08:08.840Z,4.10
2018-05-09T21:10:39.557Z,4.37
2018-05-09T21:13:09.258Z,4.20
2018-05-09T21:15:38.490Z,4.43
2018-05-09T21:18:07.877Z,4.75
2018-05-09T21:20:37.997Z,4.30
2018-05-09T21:23:08.870Z,4.87
2018-05-09T21:25:37.773Z,4.85
2018-05-09T21:28:06.663Z,6.60
2018-05-09T21:30:35.151Z,5.40
2018-05-09T21:33:05.663Z,6.05
2018-05-09T21:35:35.462Z,5.75
2018-05-09T21:38:05.243Z,4.78
2018-05-09T21:40:35.209Z,5.37
2018-05-09T21:43:05.221Z,5.53
2018-05-09T21:45:34.832Z,5.75
2018-05-09T21:48:04.950Z,5.15
2018-05-09T21:50:35.793Z,5.60
2018-05-09T21:53:04.220Z,5.75
2018-05-09T21:55:33.968Z,4.85
2018-05-09T21:58:02.369Z,4.85
2018-05-09T22:00:30.744Z,4.72
2018-05-09T22:02:59.178Z,5.53
2018-05-09T22:05:27.551Z,7.18
2018-05-09T22:07:56.693Z,4.97
2018-05-09T22:10:25.094Z,6.18
2018-05-09T22:12:53.468Z,5.15
2018-05-09T22:15:21.926Z,6.05
2018-05-09T22:17:50.312Z,5.65
2018-05-09T22:20:18.689Z,6.30
2018-05-09T22:22:47.071Z,5.85
2018-05-09T22:25:15.457Z,6.12
2018-05-09T22:27:43.861Z,7.25
2018-05-09T22:30:12.996Z,6.05
2018-05-09T22:32:43.606Z,7.40
2018-05-09T22:35:12.776Z,7.20
2018-05-09T22:37:41.150Z,5.55
2018-05-09T22:40:10.465Z,6.97
2018-05-09T22:42:39.310Z,6.40
2018-05-09T22:45:08.304Z,7.15
2018-05-09T22:47:37.189Z,7.05
2018-05-09T22:50:09.755Z,6.43
2018-05-09T22:52:41.697Z,6.18
2018-05-09T22:55:12.165Z,6.87
2018-05-09T22:57:42.507Z,6.45
2018-05-09T23:00:12.329Z,6.95
2018-05-09T23:02:42.376Z,7.82
2018-05-09T23:05:13.261Z,7.53
2018-05-09T23:07:42.536Z,6.80
2018-05-09T23:10:12.410Z,7.43
2018-05-09T23:12:42.430Z,6.95
2018-05-09T23:15:12.620Z,6.90
2018-05-09T23:17:42.469Z,7.37
2018-05-09T23:20:12.508Z,6.18
2018-05-09T23:22:42.406Z,6.50
2018-05-09T23:25:12.510Z,7.30
2018-05-09T23:27:42.346Z,8.52
2018-05-09T23:30:10.754Z,7.10
2018-05-09T23:32:39.140Z,6.40
2018-05-09T23:35:08.405Z,8.50
2018-05-09T23:37:37.210Z,6.53
2018-05-09T23:40:05.807Z,7.87
2018-05-09T23:42:35.089Z,6.55
2018-05-09T23:45:03.672Z,6.30
2018-05-09T23:47:32.054Z,6.80
2018-05-09T23:50:00.505Z,7.53
2018-05-09T23:52:29.572Z,7.62
2018-05-09T23:55:01.449Z,7.68
2018-05-09T23:57:30.593Z,8.02
2018-05-09T23:59:58.998Z,8.60
